Aviation Digital Data Service (ADDS)

Output produced by METARs form (1811 UTC 21 September 2019)
found at http://aviationweather.gov/metar/data/
 
KNEW 211802Z 14014KT 5SM -RA BR SCT034 BKN041 OVC070 26/24 A3014 RMK AO2 P0002 T02560239
KNEW 211753Z 14012KT 1SM +RA BR BKN032 OVC042 25/23 A3014 RMK AO2 SLP201 P0031 60062 T02500233 10283 20244 56008
KNEW 211749Z 14013G23KT 3/4SM +RA BR BKN027 BKN036 OVC044 25/23 A3015 RMK AO2 P0030
KNEW 211735Z 10014KT 1 3/4SM +RA BR FEW027 BKN039 OVC060 26/24 A3015 RMK AO2 P0009 T02560239
KNEW 211716Z 09005KT 3SM -RA FEW040 BKN065 OVC085 27/24 A3015 RMK AO2 P0005 T02670239
KNEW 211744Z 2118/2218 10013KT P6SM BKN050 
     FM211830 10013G22KT P6SM VCTS SCT030CB BKN080 
     FM220000 10011G20KT P6SM FEW030 SCT070 
     FM220300 13009KT P6SM FEW025 SCT100